This is the latest recevied weather packets stored in our database for station/object ZL2VAX. If no packets are shown the sender has not sent any weather packets the latest 10 day(s).
| Time | Temp. | Humidity | Pressure | Rain* | Wind** | Luminosity | Snow |
|---|---|---|---|---|---|---|---|
| 1777953375 | 16.11° C | 67% | 1032.2 hPa | 0 mm | - | - | - |
| 1777949764 | 16.11° C | 67% | 1032.3 hPa | 0 mm | - | - | - |
| 1777941323 | 15.56° C | 66% | 1033.6 hPa | 0 mm | - | - | - |
| 1777938972 | 14.44° C | 70% | 1034.2 hPa | 0 mm | - | - | - |
| 1777929934 | 13.33° C | 72% | 1034.8 hPa | 0 mm | - | - | - |
| 1777929331 | 13.33° C | 72% | 1034.8 hPa | 0 mm | - | - | - |
| 1777919753 | 11.67° C | 76% | 1034.3 hPa | 0 mm | - | - | - |
| 1777916777 | 11.67° C | 77% | 1034.5 hPa | 0 mm | - | - | - |
| 1777914949 | 11.67° C | 76% | 1034.6 hPa | 0 mm | - | - | - |
| 1777911975 | 12.22° C | 76% | 1034.5 hPa | 0 mm | - | - | - |
| 1777910167 | 12.22° C | 76% | 1034.8 hPa | 0 mm | - | - | - |
| 1777906552 | 12.22° C | 75% | 1035.1 hPa | 0 mm | - | - | - |
| 1777899925 | 12.22° C | 77% | 1035.5 hPa | 0 mm | - | - | - |
| 1777899321 | 12.22° C | 76% | 1035.6 hPa | 0 mm | - | - | - |
| 1777894562 | 12.22° C | 77% | 1035.6 hPa | 0 mm | - | - | - |
| 1777890945 | 12.22° C | 77% | 1035.8 hPa | 0 mm | - | - | - |
| 1777890343 | 12.22° C | 78% | 1035.9 hPa | 0 mm | - | - | - |
| 1777886727 | 12.22° C | 77% | 1035.6 hPa | 0 mm | - | - | - |
| 1777885523 | 12.22° C | 76% | 1035.5 hPa | 0 mm | - | - | - |
| 1777875338 | 12.22° C | 78% | 1034.8 hPa | 0 mm | - | - | - |
| 1777872325 | 12.78° C | 78% | 1034.5 hPa | 0 mm | - | - | - |
| 1777869975 | 13.33° C | 75% | 1034.6 hPa | 0 mm | - | - | - |
| 1777865757 | 13.89° C | 73% | 1034.5 hPa | 0 mm | - | - | - |
| 1777856717 | 13.89° C | 73% | 1034.9 hPa | 0 mm | - | - | - |
| 1777853187 | 13.89° C | 73% | 1035.7 hPa | 0 mm | - | - | - |
* Rain latest hour (hover to see other rain measurements)
** Current wind speed in m/s (hover to see current wind gust speed)